createdAt,value
2023-03-03T00:00:02.435Z,5.00
2023-03-03T00:04:15.089Z,4.90
2023-03-03T00:08:17.982Z,5.10
2023-03-03T00:12:24.901Z,5.00
2023-03-03T00:16:32.191Z,5.00
2023-03-03T00:20:37.733Z,5.00
2023-03-03T00:24:40.553Z,5.00
2023-03-03T00:28:47.192Z,4.80
2023-03-03T00:32:53.058Z,4.80
2023-03-03T00:36:57.263Z,4.70
2023-03-03T00:41:00.095Z,4.80
2023-03-03T00:45:03.173Z,4.80
2023-03-03T00:49:22.080Z,4.70
2023-03-03T00:53:26.535Z,4.70
2023-03-03T00:57:29.616Z,4.70
2023-03-03T01:01:32.816Z,4.60
2023-03-03T01:05:37.699Z,4.70
2023-03-03T01:09:40.607Z,4.60
2023-03-03T01:13:45.527Z,4.70
2023-03-03T01:17:48.355Z,4.80
2023-03-03T01:21:52.685Z,4.60
2023-03-03T01:25:55.594Z,4.40
2023-03-03T01:29:58.512Z,4.40
2023-03-03T01:34:01.643Z,4.30
2023-03-03T01:38:05.812Z,4.20
2023-03-03T01:42:09.171Z,4.00
2023-03-03T01:46:46.150Z,4.30
2023-03-03T01:50:52.963Z,4.00
2023-03-03T01:55:02.909Z,4.10
2023-03-03T01:59:11.099Z,4.00
2023-03-03T02:03:14.355Z,3.90
2023-03-03T02:07:18.284Z,3.70
2023-03-03T02:11:24.077Z,3.80
2023-03-03T02:15:29.293Z,3.80
2023-03-03T02:19:42.246Z,3.90
2023-03-03T02:23:54.043Z,3.90
2023-03-03T02:27:59.916Z,3.90
2023-03-03T02:32:03.850Z,3.80
2023-03-03T02:36:07.340Z,3.70
2023-03-03T02:40:12.064Z,3.60
2023-03-03T02:44:18.466Z,3.60
2023-03-03T02:48:22.524Z,3.70
2023-03-03T02:52:25.346Z,3.80
2023-03-03T02:56:28.461Z,3.70
2023-03-03T03:00:33.257Z,3.70
2023-03-03T03:04:37.067Z,3.80
2023-03-03T03:08:41.009Z,3.90
2023-03-03T03:12:43.942Z,3.90
2023-03-03T03:16:49.684Z,3.90
2023-03-03T03:20:52.713Z,3.80
2023-03-03T03:24:55.985Z,3.80
2023-03-03T03:28:58.887Z,3.90
2023-03-03T03:33:03.223Z,4.00
2023-03-03T03:37:06.602Z,4.20
2023-03-03T03:41:09.551Z,4.20
2023-03-03T03:45:15.188Z,4.40
2023-03-03T03:49:21.821Z,4.30
2023-03-03T03:53:26.908Z,4.30
2023-03-03T03:57:30.114Z,4.40
2023-03-03T04:01:33.069Z,4.40
2023-03-03T04:05:37.583Z,4.50
2023-03-03T04:09:41.437Z,4.40
2023-03-03T04:13:45.554Z,4.50
2023-03-03T04:17:48.808Z,4.50
2023-03-03T04:21:53.653Z,4.50
2023-03-03T04:25:56.590Z,4.60
2023-03-03T04:29:59.913Z,4.60
2023-03-03T04:34:03.082Z,4.50
2023-03-03T04:38:07.953Z,4.60
2023-03-03T04:42:13.248Z,4.80
2023-03-03T04:46:16.657Z,4.70
2023-03-03T04:50:20.845Z,4.60
2023-03-03T04:54:25.155Z,4.50
2023-03-03T04:58:28.044Z,4.70
2023-03-03T05:02:32.078Z,4.60
2023-03-03T05:06:35.662Z,4.70
2023-03-03T05:10:39.971Z,4.70
2023-03-03T05:14:42.882Z,4.70
2023-03-03T05:18:46.593Z,4.70
2023-03-03T05:22:49.412Z,4.80
2023-03-03T05:26:53.775Z,4.70
2023-03-03T05:30:56.589Z,4.50
2023-03-03T05:34:59.374Z,4.60
2023-03-03T05:39:02.174Z,4.60
2023-03-03T05:43:07.106Z,4.60
2023-03-03T05:47:09.927Z,4.70
2023-03-03T05:51:12.780Z,4.70
2023-03-03T05:55:15.601Z,4.70
2023-03-03T05:59:20.657Z,4.70
2023-03-03T06:03:23.551Z,4.80
2023-03-03T06:07:26.319Z,4.70
2023-03-03T06:11:29.205Z,4.70
2023-03-03T06:15:33.371Z,4.80
2023-03-03T06:19:37.093Z,4.80
2023-03-03T06:23:39.870Z,4.70
2023-03-03T06:27:42.652Z,4.70
2023-03-03T06:31:46.851Z,4.80
2023-03-03T06:35:51.410Z,4.80
2023-03-03T06:39:54.309Z,4.80
2023-03-03T06:43:58.337Z,4.80
2023-03-03T06:48:03.037Z,4.80
2023-03-03T06:52:13.074Z,4.80
2023-03-03T06:56:16.136Z,4.80
2023-03-03T07:00:21.260Z,4.80
2023-03-03T07:04:30.965Z,5.00
2023-03-03T07:08:33.974Z,5.00
2023-03-03T07:12:36.904Z,5.00
2023-03-03T07:16:39.724Z,4.90
2023-03-03T07:20:44.480Z,4.90
2023-03-03T07:24:52.493Z,5.00
2023-03-03T07:28:57.551Z,5.00
2023-03-03T07:33:00.611Z,5.10
2023-03-03T07:37:11.483Z,5.20
2023-03-03T07:41:20.831Z,5.30
2023-03-03T07:45:27.695Z,5.10
2023-03-03T07:49:35.901Z,5.20
2023-03-03T07:53:40.140Z,5.10
2023-03-03T07:57:43.083Z,5.20
2023-03-03T08:01:49.715Z,5.30
2023-03-03T08:05:53.164Z,5.50
2023-03-03T08:10:00.741Z,5.50
2023-03-03T08:14:10.417Z,5.30
2023-03-03T08:18:22.622Z,5.40
2023-03-03T08:22:32.385Z,5.60
2023-03-03T08:26:36.729Z,5.40
2023-03-03T08:30:39.760Z,5.40
2023-03-03T08:34:42.630Z,5.50
2023-03-03T08:38:45.473Z,5.50
2023-03-03T08:42:49.960Z,5.70
2023-03-03T08:46:52.783Z,5.90
2023-03-03T08:50:55.827Z,6.00
2023-03-03T08:54:58.654Z,6.30
2023-03-03T08:59:03.415Z,6.50
2023-03-03T09:03:07.125Z,6.70
2023-03-03T09:07:10.140Z,6.80
2023-03-03T09:11:13.777Z,6.80
2023-03-03T09:15:22.316Z,6.90
2023-03-03T09:19:29.427Z,6.90
2023-03-03T09:23:35.924Z,7.00
2023-03-03T09:27:39.482Z,7.20
2023-03-03T09:31:46.080Z,7.50
2023-03-03T09:35:52.800Z,7.80
2023-03-03T09:39:57.413Z,8.00
2023-03-03T09:44:32.481Z,8.10
2023-03-03T09:48:50.124Z,8.40
2023-03-03T09:52:59.778Z,8.60
2023-03-03T09:57:09.856Z,8.60
2023-03-03T10:01:36.270Z,8.50
2023-03-03T10:05:48.977Z,8.50
2023-03-03T10:10:06.815Z,8.50
2023-03-03T10:14:22.025Z,8.50
2023-03-03T10:18:33.574Z,8.50
2023-03-03T10:22:48.994Z,8.40
2023-03-03T10:27:13.522Z,8.50
2023-03-03T10:31:28.414Z,8.50
2023-03-03T10:35:40.950Z,8.40
2023-03-03T10:40:02.762Z,8.30
2023-03-03T10:44:28.539Z,8.30
2023-03-03T10:48:52.104Z,8.40
2023-03-03T10:53:10.172Z,8.50
2023-03-03T10:57:22.888Z,8.70
2023-03-03T11:01:37.128Z,8.80
2023-03-03T11:05:43.963Z,8.80
2023-03-03T11:10:14.967Z,8.90
2023-03-03T11:14:24.955Z,9.00
2023-03-03T11:18:36.677Z,9.10
2023-03-03T11:22:47.610Z,9.10
2023-03-03T11:27:03.716Z,9.00
2023-03-03T11:31:19.701Z,9.00
2023-03-03T11:35:27.698Z,8.90
2023-03-03T11:39:30.608Z,8.80
2023-03-03T11:43:39.808Z,8.80
2023-03-03T11:47:52.221Z,8.70
2023-03-03T11:52:05.988Z,8.80
2023-03-03T11:56:21.900Z,8.90
2023-03-03T12:00:32.278Z,9.10
2023-03-03T12:04:41.911Z,9.40
2023-03-03T12:09:11.769Z,9.60
2023-03-03T12:13:22.046Z,9.70
2023-03-03T12:17:38.022Z,9.80
2023-03-03T12:21:58.091Z,9.70
2023-03-03T12:26:07.116Z,9.90
2023-03-03T12:30:21.366Z,10.10
2023-03-03T12:34:33.683Z,10.10
2023-03-03T12:38:45.191Z,10.00
2023-03-03T12:42:58.675Z,10.00
2023-03-03T12:47:07.498Z,9.80
2023-03-03T12:51:19.923Z,9.80
2023-03-03T12:55:33.928Z,9.90
2023-03-03T12:59:44.033Z,9.90
2023-03-03T13:03:56.701Z,10.20
2023-03-03T13:08:15.172Z,10.70
2023-03-03T13:12:39.311Z,11.90
2023-03-03T13:16:46.830Z,13.60
2023-03-03T13:20:54.928Z,13.60
2023-03-03T13:25:04.888Z,13.30
2023-03-03T13:29:20.206Z,13.00
2023-03-03T13:33:28.011Z,12.60
2023-03-03T13:37:34.169Z,12.00
2023-03-03T13:41:45.378Z,11.60
2023-03-03T13:46:06.523Z,11.40
2023-03-03T13:50:23.398Z,11.10
2023-03-03T13:54:51.921Z,11.00
2023-03-03T13:59:04.564Z,11.10
2023-03-03T14:03:27.102Z,11.20
2023-03-03T14:07:35.162Z,11.50
2023-03-03T14:11:46.808Z,11.70
2023-03-03T14:15:55.809Z,11.60
2023-03-03T14:20:12.756Z,11.50
2023-03-03T14:24:18.511Z,12.00
2023-03-03T14:28:23.176Z,12.70
2023-03-03T14:32:43.225Z,13.20
2023-03-03T14:36:49.262Z,13.40
2023-03-03T14:41:07.396Z,13.20
2023-03-03T14:45:33.588Z,13.10
2023-03-03T14:49:38.416Z,13.10
2023-03-03T14:53:45.424Z,12.90
2023-03-03T14:57:48.621Z,12.80
2023-03-03T15:01:59.318Z,12.70
2023-03-03T15:06:02.128Z,12.20
2023-03-03T15:10:07.784Z,12.10
2023-03-03T15:14:15.202Z,12.00
2023-03-03T15:18:18.489Z,11.80
2023-03-03T15:22:29.235Z,11.60
2023-03-03T15:26:44.235Z,11.50
2023-03-03T15:30:54.343Z,11.30
2023-03-03T15:35:05.851Z,11.20
2023-03-03T15:39:22.089Z,11.10
2023-03-03T15:43:29.442Z,11.00
2023-03-03T15:47:45.796Z,10.90
2023-03-03T15:52:03.830Z,10.70
2023-03-03T15:56:21.708Z,10.60
2023-03-03T16:00:38.751Z,10.60
2023-03-03T16:04:48.876Z,10.40
2023-03-03T16:08:59.295Z,10.30
2023-03-03T16:13:20.599Z,10.20
2023-03-03T16:17:32.521Z,10.10
2023-03-03T16:21:53.501Z,9.90
2023-03-03T16:26:06.516Z,9.80
2023-03-03T16:30:27.433Z,9.80
2023-03-03T16:34:38.583Z,9.80
2023-03-03T16:38:44.889Z,9.70
2023-03-03T16:42:52.533Z,9.60
2023-03-03T16:47:07.366Z,9.50
2023-03-03T16:51:29.293Z,9.30
2023-03-03T16:55:36.637Z,9.10
2023-03-03T17:00:05.377Z,9.00
2023-03-03T17:04:16.004Z,8.90
2023-03-03T17:08:41.815Z,8.80
2023-03-03T17:13:10.624Z,8.70
2023-03-03T17:17:26.968Z,8.50
2023-03-03T17:21:40.348Z,8.50
2023-03-03T17:25:51.105Z,8.50
2023-03-03T17:30:04.181Z,8.30
2023-03-03T17:34:19.011Z,8.00
2023-03-03T17:38:32.737Z,7.90
2023-03-03T17:42:44.388Z,7.90
2023-03-03T17:46:51.434Z,7.70
2023-03-03T17:51:09.484Z,7.50
2023-03-03T17:55:36.730Z,7.40
2023-03-03T17:59:53.128Z,7.30
2023-03-03T18:04:35.366Z,7.10
2023-03-03T18:09:19.690Z,7.10
2023-03-03T18:13:41.964Z,7.00
2023-03-03T18:18:05.915Z,6.70
2023-03-03T18:22:14.006Z,6.60
2023-03-03T18:26:40.363Z,6.50
2023-03-03T18:30:59.330Z,6.60
2023-03-03T18:35:25.702Z,6.70
2023-03-03T18:39:46.572Z,6.50
2023-03-03T18:43:56.275Z,6.40
2023-03-03T18:48:06.049Z,6.40
2023-03-03T18:52:19.348Z,6.30
2023-03-03T18:56:44.908Z,5.90
2023-03-03T19:00:50.308Z,6.10
2023-03-03T19:04:56.018Z,5.90
2023-03-03T19:09:00.308Z,6.00
2023-03-03T19:13:03.180Z,5.90
2023-03-03T19:17:39.340Z,5.80
2023-03-03T19:21:43.944Z,5.80
2023-03-03T19:26:21.424Z,5.60
2023-03-03T19:30:48.755Z,5.50
2023-03-03T19:34:58.826Z,5.50
2023-03-03T19:39:23.522Z,5.40
2023-03-03T19:43:38.258Z,5.40
2023-03-03T19:47:47.311Z,5.30
2023-03-03T19:52:00.276Z,5.30
2023-03-03T19:56:16.889Z,5.20
2023-03-03T20:00:24.592Z,5.20
2023-03-03T20:04:40.606Z,5.40
2023-03-03T20:08:54.371Z,5.50
2023-03-03T20:13:08.473Z,5.10
2023-03-03T20:17:58.542Z,5.30
2023-03-03T20:22:09.586Z,5.20
2023-03-03T20:26:17.786Z,4.90
2023-03-03T20:30:46.585Z,5.00
2023-03-03T20:35:03.206Z,4.80
2023-03-03T20:39:08.184Z,4.60
2023-03-03T20:43:22.748Z,4.50
2023-03-03T20:47:38.156Z,4.40
2023-03-03T20:51:46.515Z,4.50
2023-03-03T20:55:59.622Z,4.40
2023-03-03T21:00:07.658Z,4.40
2023-03-03T21:04:18.779Z,4.50
2023-03-03T21:08:41.230Z,4.40
2023-03-03T21:12:44.236Z,4.20
2023-03-03T21:16:47.116Z,4.20
2023-03-03T21:20:49.922Z,4.30
2023-03-03T21:24:55.908Z,4.30
2023-03-03T21:29:03.689Z,4.20
2023-03-03T21:33:06.491Z,4.40
2023-03-03T21:37:10.722Z,4.00
2023-03-03T21:41:16.679Z,4.10
2023-03-03T21:45:20.403Z,4.10
2023-03-03T21:49:23.245Z,4.00
2023-03-03T21:53:26.623Z,3.80
2023-03-03T21:57:30.848Z,3.90
2023-03-03T22:01:33.746Z,3.90
2023-03-03T22:05:37.182Z,3.80
2023-03-03T22:09:40.161Z,3.90
2023-03-03T22:13:44.306Z,3.90
2023-03-03T22:17:47.166Z,4.10
2023-03-03T22:21:50.562Z,3.90
2023-03-03T22:25:53.335Z,3.90
2023-03-03T22:29:57.509Z,4.10
2023-03-03T22:34:00.479Z,3.90
2023-03-03T22:38:03.438Z,4.00
2023-03-03T22:42:06.531Z,3.50
2023-03-03T22:46:10.888Z,3.70
2023-03-03T22:50:16.815Z,3.70
2023-03-03T22:54:19.551Z,3.80
2023-03-03T22:58:25.407Z,3.90
2023-03-03T23:02:29.793Z,3.90
2023-03-03T23:06:32.562Z,3.60
2023-03-03T23:10:35.674Z,3.80
2023-03-03T23:14:38.419Z,3.90
2023-03-03T23:18:42.665Z,3.70
2023-03-03T23:22:47.121Z,3.80
2023-03-03T23:26:51.762Z,3.80
2023-03-03T23:30:54.578Z,3.60
2023-03-03T23:34:58.703Z,3.40
2023-03-03T23:39:01.463Z,3.30
2023-03-03T23:43:04.205Z,3.40
2023-03-03T23:47:07.555Z,3.10
2023-03-03T23:51:11.627Z,3.10
2023-03-03T23:55:14.347Z,3.10
2023-03-03T23:59:17.207Z,3.00
